Weather at Düsseldorf Airport

Public forecast

Using degrees Celsius for public forecast. Weather courtesy of forecast.io.

Current aviation weather report (METAR) for Düsseldorf Airport

Retrieved 2021/02/26 04:20 UTC (2 hours ago):

EDDL 260420Z 34009KT 9999 -RA FEW012 BKN042 07/05 Q1031 NOSIG

Aviation forecast (TAF) for Düsseldorf Airport

Retrieved 2021-02-26 00:27 UTC (6 hours ago):

TAF EDDL 252300Z 2600/2706 34006KT 9999 BKN020 TEMPO 2600/2606 4500 -RA BR BKN012 PROB30 TEMPO 2600/2606 BKN007 TEMPO 2612/2617 33011KT BECMG 2620/2623 VRB03KT TEMPO 2700/2706 3500 BCFG PROB30 TEMPO 2703/2706 0600 FG BKN001